createdAt,value
2023-03-07T00:00:04.177Z,99190.41
2023-03-07T00:03:51.863Z,99192.52
2023-03-07T00:07:18.914Z,99190.36
2023-03-07T00:10:45.513Z,99190.92
2023-03-07T00:14:13.160Z,99190.96
2023-03-07T00:17:40.542Z,99186.08
2023-03-07T00:21:09.481Z,99184.21
2023-03-07T00:24:36.507Z,99181.48
2023-03-07T00:28:03.986Z,99182.62
2023-03-07T00:31:31.321Z,99176.30
2023-03-07T00:34:59.556Z,99172.34
2023-03-07T00:38:26.751Z,99170.29
2023-03-07T00:41:53.594Z,99171.76
2023-03-07T00:45:21.476Z,99171.41
2023-03-07T00:48:50.201Z,99167.16
2023-03-07T00:52:17.695Z,99169.40
2023-03-07T00:55:45.121Z,99164.02
2023-03-07T00:59:13.443Z,99159.33
2023-03-07T01:02:41.137Z,99157.70
2023-03-07T01:06:09.921Z,99158.10
2023-03-07T01:09:36.861Z,99151.90
2023-03-07T01:13:06.438Z,99146.38
2023-03-07T01:16:36.656Z,99142.40
2023-03-07T01:20:07.397Z,99139.27
2023-03-07T01:23:38.054Z,99136.48
2023-03-07T01:27:05.314Z,99134.50
2023-03-07T01:30:31.990Z,99131.00
2023-03-07T01:33:59.847Z,99124.81
2023-03-07T01:37:27.924Z,99122.48
2023-03-07T01:40:55.247Z,99124.08
2023-03-07T01:44:25.246Z,99124.44
2023-03-07T01:47:52.634Z,99118.55
2023-03-07T01:51:23.335Z,99119.10
2023-03-07T01:54:56.368Z,99115.39
2023-03-07T01:58:23.946Z,99117.26
2023-03-07T02:01:53.239Z,99115.89
2023-03-07T02:05:26.187Z,99115.69
2023-03-07T02:08:57.761Z,99114.45
2023-03-07T02:12:26.183Z,99111.02
2023-03-07T02:15:54.586Z,99110.07
2023-03-07T02:19:43.357Z,99103.52
2023-03-07T02:23:15.033Z,99100.38
2023-03-07T02:26:46.525Z,99091.33
2023-03-07T02:30:15.152Z,99089.08
2023-03-07T02:33:41.968Z,99084.67
2023-03-07T02:37:14.084Z,99088.27
2023-03-07T02:40:41.488Z,99088.68
2023-03-07T02:44:10.224Z,99079.91
2023-03-07T02:47:37.481Z,99074.88
2023-03-07T02:51:05.214Z,99071.91
2023-03-07T02:54:33.675Z,99066.04
2023-03-07T02:58:00.781Z,99058.81
2023-03-07T03:01:28.446Z,99053.61
2023-03-07T03:04:58.271Z,99050.46
2023-03-07T03:08:25.735Z,99051.88
2023-03-07T03:11:55.170Z,99049.36
2023-03-07T03:15:26.812Z,99045.34
2023-03-07T03:18:54.164Z,99045.23
2023-03-07T03:22:20.774Z,99040.50
2023-03-07T03:25:48.130Z,99032.91
2023-03-07T03:29:15.251Z,99030.21
2023-03-07T03:32:44.016Z,99027.01
2023-03-07T03:36:15.900Z,99020.26
2023-03-07T03:39:43.971Z,99015.02
2023-03-07T03:43:13.485Z,99015.00
2023-03-07T03:46:40.768Z,99013.31
2023-03-07T03:50:08.675Z,99019.57
2023-03-07T03:53:38.549Z,99018.30
2023-03-07T03:57:06.075Z,99018.88
2023-03-07T04:00:33.565Z,99007.42
2023-03-07T04:04:02.293Z,98997.14
2023-03-07T04:07:30.031Z,98995.14
2023-03-07T04:10:57.252Z,98985.61
2023-03-07T04:14:25.116Z,98983.14
2023-03-07T04:17:51.937Z,98984.05
2023-03-07T04:21:19.204Z,98980.63
2023-03-07T04:24:47.263Z,98974.84
2023-03-07T04:28:14.538Z,98975.67
2023-03-07T04:31:41.463Z,98970.92
2023-03-07T04:35:10.571Z,98965.20
2023-03-07T04:38:38.618Z,98953.18
2023-03-07T04:42:06.145Z,98951.69
2023-03-07T04:45:38.532Z,98950.24
2023-03-07T04:49:05.757Z,98943.50
2023-03-07T04:52:32.771Z,98945.59
2023-03-07T04:56:02.510Z,98937.36
2023-03-07T04:59:29.969Z,98932.17
2023-03-07T05:03:02.313Z,98928.34
2023-03-07T05:06:30.416Z,98924.82
2023-03-07T05:09:58.597Z,98916.88
2023-03-07T05:13:25.942Z,98908.59
2023-03-07T05:16:52.668Z,98901.80
2023-03-07T05:20:20.612Z,98896.56
2023-03-07T05:23:47.888Z,98894.02
2023-03-07T05:27:15.092Z,98886.05
2023-03-07T05:30:42.387Z,98880.27
2023-03-07T05:34:10.950Z,98876.20
2023-03-07T05:37:39.544Z,98865.52
2023-03-07T05:41:07.130Z,98862.64
2023-03-07T05:44:34.479Z,98857.05
2023-03-07T05:48:03.440Z,98848.23
2023-03-07T05:51:31.256Z,98849.48
2023-03-07T05:54:59.168Z,98861.39
2023-03-07T05:58:26.345Z,98859.93
2023-03-07T06:01:53.476Z,98861.86
2023-03-07T06:05:20.744Z,98852.56
2023-03-07T06:08:47.674Z,98846.02
2023-03-07T06:12:16.573Z,98846.04
2023-03-07T06:15:42.908Z,98846.52
2023-03-07T06:19:10.381Z,98842.80
2023-03-07T06:22:38.518Z,98839.42
2023-03-07T06:26:06.391Z,98839.23
2023-03-07T06:29:33.672Z,98837.98
2023-03-07T06:33:00.622Z,98831.77
2023-03-07T06:36:28.172Z,98826.91
2023-03-07T06:39:57.939Z,98828.11
2023-03-07T06:43:25.225Z,98828.13
2023-03-07T06:46:52.450Z,98824.56
2023-03-07T06:50:26.643Z,98810.00
2023-03-07T06:54:02.192Z,98805.70
2023-03-07T06:57:29.605Z,98796.54
2023-03-07T07:00:56.926Z,98783.42
2023-03-07T07:04:24.140Z,98778.08
2023-03-07T07:07:53.743Z,98775.90
2023-03-07T07:11:21.655Z,98771.88
2023-03-07T07:14:48.943Z,98765.80
2023-03-07T07:18:16.737Z,98757.55
2023-03-07T07:21:43.740Z,98756.08
2023-03-07T07:25:13.105Z,98760.52
2023-03-07T07:28:40.253Z,98755.45
2023-03-07T07:32:09.218Z,98747.39
2023-03-07T07:35:37.209Z,98740.31
2023-03-07T07:39:06.341Z,98738.09
2023-03-07T07:42:34.019Z,98734.30
2023-03-07T07:46:10.883Z,98725.71
2023-03-07T07:49:38.633Z,98715.98
2023-03-07T07:53:06.380Z,98713.83
2023-03-07T07:56:34.651Z,98713.91
2023-03-07T08:00:01.476Z,98713.36
2023-03-07T08:03:28.808Z,98698.71
2023-03-07T08:06:56.730Z,98687.63
2023-03-07T08:10:25.790Z,98679.02
2023-03-07T08:13:53.448Z,98667.52
2023-03-07T08:17:20.294Z,98664.79
2023-03-07T08:20:47.776Z,98660.24
2023-03-07T08:24:14.805Z,98649.03
2023-03-07T08:27:41.653Z,98639.93
2023-03-07T08:31:12.391Z,98635.77
2023-03-07T08:34:39.069Z,98629.25
2023-03-07T08:38:06.434Z,98622.65
2023-03-07T08:41:35.441Z,98613.15
2023-03-07T08:45:06.870Z,98611.81
2023-03-07T08:48:34.084Z,98604.56
2023-03-07T08:52:01.310Z,98595.44
2023-03-07T08:55:29.289Z,98590.66
2023-03-07T08:58:57.414Z,98586.51
2023-03-07T09:02:24.376Z,98580.88
2023-03-07T09:05:53.482Z,98570.60
2023-03-07T09:09:20.890Z,98572.02
2023-03-07T09:12:51.317Z,98569.64
2023-03-07T09:16:17.941Z,98560.02
2023-03-07T09:19:44.915Z,98556.96
2023-03-07T09:23:12.077Z,98559.62
2023-03-07T09:26:39.618Z,98552.39
2023-03-07T09:30:08.275Z,98549.48
2023-03-07T09:33:34.669Z,98545.55
2023-03-07T09:37:01.476Z,98543.27
2023-03-07T09:40:29.773Z,98534.67
2023-03-07T09:44:05.724Z,98531.20
2023-03-07T09:48:16.896Z,98519.77
2023-03-07T09:51:46.866Z,98512.89
2023-03-07T09:55:19.613Z,98502.41
2023-03-07T09:58:52.969Z,98497.75
2023-03-07T10:02:25.263Z,98487.30
2023-03-07T10:05:53.528Z,98484.95
2023-03-07T10:09:24.404Z,98474.36
2023-03-07T10:13:16.146Z,98468.73
2023-03-07T10:16:51.106Z,98465.95
2023-03-07T10:20:25.848Z,98453.94
2023-03-07T10:24:21.118Z,98455.80
2023-03-07T10:27:48.581Z,98453.78
2023-03-07T10:31:24.310Z,98449.52
2023-03-07T10:34:58.285Z,98446.80
2023-03-07T10:38:31.851Z,98444.71
2023-03-07T10:41:59.398Z,98433.85
2023-03-07T10:45:28.933Z,98428.15
2023-03-07T10:49:03.623Z,98424.65
2023-03-07T10:52:36.684Z,98416.27
2023-03-07T10:56:15.874Z,98412.11
2023-03-07T10:59:44.447Z,98420.23
2023-03-07T11:03:26.458Z,98407.56
2023-03-07T11:06:57.033Z,98412.63
2023-03-07T11:10:37.370Z,98411.78
2023-03-07T11:14:14.106Z,98406.86
2023-03-07T11:17:45.717Z,98402.33
2023-03-07T11:21:31.439Z,98393.83
2023-03-07T11:25:03.929Z,98393.33
2023-03-07T11:28:33.680Z,98389.08
2023-03-07T11:32:13.202Z,98387.11
2023-03-07T11:35:56.721Z,98381.96
2023-03-07T11:39:33.200Z,98378.96
2023-03-07T11:43:14.237Z,98381.05
2023-03-07T11:46:56.908Z,98376.85
2023-03-07T11:50:28.051Z,98368.86
2023-03-07T11:54:06.794Z,98365.05
2023-03-07T11:57:48.643Z,98359.47
2023-03-07T12:01:27.301Z,98358.44
2023-03-07T12:05:10.167Z,98359.84
2023-03-07T12:08:39.638Z,98358.34
2023-03-07T12:12:25.824Z,98360.08
2023-03-07T12:16:03.443Z,98358.15
2023-03-07T12:19:52.347Z,98354.55
2023-03-07T12:23:24.803Z,98353.06
2023-03-07T12:26:59.398Z,98347.51
2023-03-07T12:30:36.265Z,98342.92
2023-03-07T12:34:08.833Z,98340.42
2023-03-07T12:37:44.803Z,98338.83
2023-03-07T12:41:25.936Z,98341.34
2023-03-07T12:44:56.927Z,98332.14
2023-03-07T12:48:31.053Z,98329.02
2023-03-07T12:52:03.183Z,98328.23
2023-03-07T12:55:39.104Z,98325.20
2023-03-07T12:59:13.072Z,98324.55
2023-03-07T13:02:45.331Z,98324.27
2023-03-07T13:06:19.018Z,98324.25
2023-03-07T13:09:45.632Z,98324.59
2023-03-07T13:16:49.500Z,98319.60
2023-03-07T13:20:41.266Z,98318.23
2023-03-07T13:24:37.221Z,98315.88
2023-03-07T13:28:06.441Z,98313.58
2023-03-07T13:31:48.943Z,98300.25
2023-03-07T13:35:34.790Z,98295.89
2023-03-07T13:39:01.960Z,98296.65
2023-03-07T13:42:58.136Z,98291.86
2023-03-07T13:46:45.718Z,98290.47
2023-03-07T13:51:01.579Z,98286.96
2023-03-07T13:54:28.843Z,98285.69
2023-03-07T13:57:58.161Z,98288.58
2023-03-07T14:01:28.957Z,98281.35
2023-03-07T14:05:01.780Z,98264.02
2023-03-07T14:08:33.200Z,98252.90
2023-03-07T14:12:09.597Z,98250.03
2023-03-07T14:15:45.674Z,98254.39
2023-03-07T14:19:24.071Z,98256.59
2023-03-07T14:23:07.837Z,98250.59
2023-03-07T14:26:38.746Z,98248.38
2023-03-07T14:30:16.910Z,98248.79
2023-03-07T14:33:44.284Z,98251.34
2023-03-07T14:37:16.609Z,98254.70
2023-03-07T14:40:56.759Z,98252.33
2023-03-07T14:44:41.598Z,98242.67
2023-03-07T14:48:27.933Z,98240.09
2023-03-07T14:51:54.948Z,98236.33
2023-03-07T14:55:24.530Z,98224.35
2023-03-07T14:58:56.218Z,98216.67
2023-03-07T15:02:23.064Z,98207.03
2023-03-07T15:05:58.774Z,98203.21
2023-03-07T15:09:26.865Z,98201.75
2023-03-07T15:12:57.267Z,98196.58
2023-03-07T15:16:29.060Z,98189.70
2023-03-07T15:20:00.246Z,98184.63
2023-03-07T15:23:29.420Z,98183.30
2023-03-07T15:26:57.539Z,98180.33
2023-03-07T15:30:29.215Z,98174.33
2023-03-07T15:34:11.160Z,98174.89
2023-03-07T15:37:51.686Z,98166.11
2023-03-07T15:41:36.171Z,98162.71
2023-03-07T15:45:06.066Z,98157.98
2023-03-07T15:48:41.264Z,98152.16
2023-03-07T15:52:18.612Z,98150.10
2023-03-07T15:55:57.021Z,98147.06
2023-03-07T15:59:29.094Z,98148.53
2023-03-07T16:03:19.470Z,98145.35
2023-03-07T16:06:49.657Z,98130.71
2023-03-07T16:10:17.178Z,98126.05
2023-03-07T16:13:46.245Z,98116.05
2023-03-07T16:17:21.795Z,98113.14
2023-03-07T16:20:49.515Z,98110.38
2023-03-07T16:24:20.027Z,98107.13
2023-03-07T16:27:51.741Z,98102.88
2023-03-07T16:31:20.302Z,98099.15
2023-03-07T16:34:48.927Z,98093.77
2023-03-07T16:38:19.806Z,98097.14
2023-03-07T16:41:49.482Z,98098.41
2023-03-07T16:45:22.697Z,98092.75
2023-03-07T16:48:50.301Z,98086.14
2023-03-07T16:52:17.617Z,98078.49
2023-03-07T16:55:46.838Z,98070.11
2023-03-07T16:59:17.898Z,98092.02
2023-03-07T17:02:47.105Z,98115.09
2023-03-07T17:06:25.336Z,98147.46
2023-03-07T17:09:56.736Z,98153.20
2023-03-07T17:13:23.894Z,98150.14
2023-03-07T17:16:55.579Z,98155.02
2023-03-07T17:20:25.178Z,98164.27
2023-03-07T17:23:52.932Z,98176.31
2023-03-07T17:27:20.793Z,98188.52
2023-03-07T17:30:48.359Z,98195.46
2023-03-07T17:34:26.062Z,98204.33
2023-03-07T17:37:57.617Z,98215.17
2023-03-07T17:41:28.961Z,98217.45
2023-03-07T17:44:55.784Z,98228.04
2023-03-07T17:48:22.669Z,98232.05
2023-03-07T17:51:50.195Z,98231.41
2023-03-07T17:55:20.989Z,98239.77
2023-03-07T17:58:47.669Z,98235.13
2023-03-07T18:02:16.361Z,98236.80
2023-03-07T18:05:46.637Z,98230.15
2023-03-07T18:09:15.642Z,98226.73
2023-03-07T18:12:42.721Z,98214.77
2023-03-07T18:16:11.858Z,98203.30
2023-03-07T18:19:42.913Z,98202.66
2023-03-07T18:23:09.826Z,98191.30
2023-03-07T18:26:36.264Z,98189.55
2023-03-07T18:30:03.215Z,98190.10
2023-03-07T18:33:31.218Z,98190.98
2023-03-07T18:36:58.527Z,98197.55
2023-03-07T18:40:25.282Z,98202.98
2023-03-07T18:43:52.447Z,98209.56
2023-03-07T18:47:19.296Z,98208.74
2023-03-07T18:50:56.282Z,98210.75
2023-03-07T18:54:23.242Z,98207.71
2023-03-07T18:57:50.353Z,98214.42
2023-03-07T19:01:19.823Z,98211.46
2023-03-07T19:04:51.528Z,98219.33
2023-03-07T19:08:19.846Z,98217.14
2023-03-07T19:11:47.703Z,98224.04
2023-03-07T19:15:14.881Z,98231.89
2023-03-07T19:18:42.506Z,98233.73
2023-03-07T19:22:11.143Z,98241.35
2023-03-07T19:25:39.328Z,98242.80
2023-03-07T19:29:06.333Z,98244.36
2023-03-07T19:32:34.035Z,98244.66
2023-03-07T19:36:09.861Z,98245.92
2023-03-07T19:39:37.426Z,98245.04
2023-03-07T19:43:08.474Z,98245.83
2023-03-07T19:46:36.037Z,98249.69
2023-03-07T19:50:04.301Z,98261.68
2023-03-07T19:53:33.432Z,98265.15
2023-03-07T19:57:00.462Z,98256.36
2023-03-07T20:00:27.740Z,98245.65
2023-03-07T20:03:55.113Z,98259.61
2023-03-07T20:07:22.277Z,98261.14
2023-03-07T20:10:53.833Z,98261.27
2023-03-07T20:14:25.409Z,98259.89
2023-03-07T20:17:54.306Z,98263.27
2023-03-07T20:21:22.645Z,98264.91
2023-03-07T20:24:54.460Z,98267.67
2023-03-07T20:28:27.127Z,98266.19
2023-03-07T20:31:56.456Z,98270.66
2023-03-07T20:35:25.098Z,98264.59
2023-03-07T20:38:54.775Z,98263.80
2023-03-07T20:42:22.716Z,98271.89
2023-03-07T20:45:50.412Z,98269.73
2023-03-07T20:49:18.871Z,98269.89
2023-03-07T20:52:48.373Z,98269.39
2023-03-07T20:56:17.227Z,98275.34
2023-03-07T20:59:47.406Z,98282.40
2023-03-07T21:03:16.242Z,98285.70
2023-03-07T21:06:46.297Z,98296.16
2023-03-07T21:10:17.665Z,98294.27
2023-03-07T21:13:47.255Z,98300.86
2023-03-07T21:17:15.140Z,98296.75
2023-03-07T21:20:49.270Z,98302.44
2023-03-07T21:24:18.377Z,98307.63
2023-03-07T21:27:47.179Z,98312.89
2023-03-07T21:31:19.388Z,98311.20
2023-03-07T21:34:49.361Z,98313.75
2023-03-07T21:38:16.116Z,98313.60
2023-03-07T21:41:42.989Z,98315.77
2023-03-07T21:45:14.755Z,98320.72
2023-03-07T21:48:43.014Z,98318.48
2023-03-07T21:52:11.096Z,98324.75
2023-03-07T21:55:42.522Z,98327.54
2023-03-07T21:59:10.516Z,98326.63
2023-03-07T22:02:39.423Z,98334.42
2023-03-07T22:06:11.417Z,98334.68
2023-03-07T22:09:39.469Z,98337.30
2023-03-07T22:13:11.233Z,98338.71
2023-03-07T22:16:38.661Z,98345.52
2023-03-07T22:20:16.106Z,98350.37
2023-03-07T22:23:44.208Z,98355.44
2023-03-07T22:27:14.202Z,98361.48
2023-03-07T22:30:42.514Z,98362.30
2023-03-07T22:34:14.569Z,98367.44
2023-03-07T22:37:43.676Z,98370.86
2023-03-07T22:41:14.937Z,98372.70
2023-03-07T22:44:41.894Z,98368.74
2023-03-07T22:48:09.364Z,98370.79
2023-03-07T22:51:38.128Z,98368.73
2023-03-07T22:55:05.570Z,98375.42
2023-03-07T22:58:33.055Z,98379.10
2023-03-07T23:01:59.693Z,98380.71
2023-03-07T23:05:26.674Z,98384.88
2023-03-07T23:08:55.202Z,98392.64
2023-03-07T23:12:22.625Z,98398.39
2023-03-07T23:15:49.862Z,98397.89
2023-03-07T23:19:31.558Z,98398.28
2023-03-07T23:22:59.472Z,98401.48
2023-03-07T23:26:28.866Z,98403.66
2023-03-07T23:29:56.021Z,98405.81
2023-03-07T23:33:23.593Z,98405.07
2023-03-07T23:36:52.122Z,98407.92
2023-03-07T23:40:20.001Z,98404.13
2023-03-07T23:43:54.568Z,98403.27
2023-03-07T23:47:21.974Z,98406.41
2023-03-07T23:50:51.165Z,98406.29
2023-03-07T23:54:22.250Z,98411.71
2023-03-07T23:57:50.940Z,98412.48
